Tiempo atmosférico en la estación meteorológica de Castellón de la Plana, Almazora, Castelló/Castellón (35 m.)

Fecha
DESCASC
Temp. máxima en grados centígrados (hora)
DESCASC
Temp. mínima en grados centígrados (hora)
DESCASC
Temp. media en grados centígrados
DESCASC
Racha de viento máxima en m/sg (hora)
DESCASC
Velocidad máxima media en intervalos de 10 minutos(hora)
DESCASC
Precipitaciones diarias en mm
DESCASC
Precipitaciones de 00:00 a 06:00 en mm
DESCASC
Precipitaciones de 06:00 a 12:00 en mm
DESCASC
Precipitaciones de 12:00 a 18:00 en mm
DESCASC
Precipitaciones de 18:00 a 24:00 en mm
DESCASC

Gráficas

Temp. máximas Temp. mínimas Temp. medias Precipitaciones Rachas de viento máximas Velocidades máximas media en intervalos de 10 minutos

Datos horarios

Fecha y hora oficial Temperatura (ºC) Velocidad del viento (km/h) Dirección del viento Racha (km/h) Dirección de racha Precipitación (mm) Presión (hPa) Tendencia (hPa) Humedad (%)
2017-08-20 23:00:00 25.3 4 Sur 8 Sur 0 1015.1 1.5 75
2017-08-20 22:00:00 25.7 5 Sur 12 Sur 0 1014.4 0.8 75
2017-08-20 21:00:00 26.4 6 Sur 12 Sur 0 1013.9 0.1 73
2017-08-20 20:00:00 27.3 8 Sur 15 Sur 0 1013.6 -0.6 71
2017-08-20 19:00:00 27.8 9 Sudeste 26 Sudeste 0 1013.6 -1 70
2017-08-20 18:00:00 28.8 12 Sudeste 24 Este 0 1013.8 -1.2 66
2017-08-20 17:00:00 29.7 9 Sudeste 22 Sudeste 0 1014.2 -1.2 59
2017-08-20 16:00:00 29.7 13 Sudeste 24 Sudeste 0 1014.6 -1.2 63
2017-08-20 15:00:00 30 9 Sudeste 19 Este 0 1015 -0.9 60
2017-08-20 14:00:00 28.5 9 Sudeste 23 Este 0 1015.4 -0.2 67
2017-08-20 13:00:00 27.8 13 Este 25 Este 0 1015.8 0.5 66
2017-08-20 12:00:00 27.5 8 Este 19 Este 0 1015.9 0.7 68
2017-08-20 11:00:00 27.3 5 Este 13 Este 0 1015.6 0.8 63
2017-08-20 10:00:00 26.5 7 Este 11 Sudeste 0 1015.3 1.2 70
2017-08-20 09:00:00 24.3 5 Oeste 10 Oeste 0 1015.2 1.5 79
2017-08-20 08:00:00 22.7 8 Oeste 11 Oeste 0 1014.8 1 86
2017-08-20 07:00:00 22.6 5 Noroeste 9 Oeste 0 1014.1 0.3 87
2017-08-20 06:00:00 22.9 5 Noroeste 9 Oeste 0 1013.7 0 86
2017-08-20 05:00:00 23.2 4 Noroeste 10 Oeste 0 1013.8 -0.2 84
2017-08-20 04:00:00 23.5 6 Oeste 9 Oeste 0 1013.8 -0.4 84
2017-08-20 03:00:00 24 5 Oeste 7 Oeste 0 1013.7 -0.5 82
2017-08-20 02:00:00 24.5 4 Noroeste 6 Noroeste 0 1014 0.1 80
2017-08-20 01:00:00 25.3 3 Norte 4 Noroeste 0 1014.2 0.8 78
2017-08-20 00:00:00 25.6 0 Calma 5 Sudeste 0 1014.2 1.2 78
2017-08-19 23:00:00 25.8 3 Sudeste 9 Este 0 1013.9 1.3 77
2017-08-19 22:00:00 26 5 Sudeste 11 Este 0 1013.4 0.6 76
2017-08-19 21:00:00 26.4 4 Sudeste 14 Este 0 1013 0.2 73
2017-08-19 20:00:00 27.2 6 Este 14 Este 0 1012.6 -0.5 69
2017-08-19 19:00:00 27.7 5 Este 18 Sudeste 0 1012.8 -0.7 67
2017-08-19 18:00:00 28.4 10 Este 28 Sudeste 0 1012.8 -0.7 64
2017-08-19 17:00:00 28.7 13 Este 24 Este 0 1013.1 -0.5 62
2017-08-19 16:00:00 28.9 14 Este 28 Sudeste 0 1013.5 -0.5 63
2017-08-19 15:00:00 29.7 12 Este 36 Este 0 1013.5 -0.3 59
2017-08-19 14:00:00 29.6 10 Este 28 Este 0 1013.6 0.1 60
2017-08-19 13:00:00 29.6 9 Este 25 Este 0 1014 0.7 57
2017-08-19 12:00:00 28.8 10 Este 23 Sudeste 0 1013.8 0.7 61
2017-08-19 11:00:00 28.4 7 Nordeste 21 Nordeste 0 1013.5 1 61
2017-08-19 10:00:00 27.9 8 Este 20 Nordeste 0 1013.3 1.7 58
2017-08-19 09:00:00 24.8 4 Noroeste 9 Noroeste 0 1013.1 2.1 68
2017-08-19 08:00:00 23.5 5 Noroeste 10 Noroeste 0 1012.5 1.6 68
2017-08-19 07:00:00 23.6 4 Noroeste 10 Norte 0 1011.6 1 68
2017-08-19 06:00:00 24 3 Norte 8 Nordeste 0 1011 0.5 76
2017-08-19 05:00:00 23.9 3 Noroeste 7 Noroeste 0 1010.9 0.8 67
2017-08-19 04:00:00 24.3 4 Noroeste 7 Noroeste 0 1010.6 0.4 65
2017-08-19 03:00:00 24.2 5 Noroeste 8 Noroeste 0 1010.5 0.2 60
2017-08-19 02:00:00 24.5 4 Noroeste 8 Oeste 0 1010.1 -0.2 57
2017-08-19 01:00:00 25.3 3 Noroeste 7 Oeste 0 1010.2 0.5 62
2017-08-19 00:00:00 26.2 0 Calma 6 Norte 0 1010.3 1.2 68
2017-08-18 23:00:00 26.9 4 Nordeste 8 Norte 0 1010.3 1.4 70
2017-08-18 22:00:00 27.3 2 Sudeste 7 Nordeste 0 1009.7 1 63
2017-08-18 21:00:00 28.1 5 Este 15 Sudeste 0 1009.1 0.7 57
2017-08-18 20:00:00 28.9 5 Este 13 Este 0 1008.9 0.2 56
2017-08-18 19:00:00 28.9 7 Nordeste 19 Este 0 1008.7 -0.5 64
2017-08-18 18:00:00 30.4 9 Sudeste 20 Este 0 1008.4 -1.1 61
2017-08-18 17:00:00 31 11 Sudeste 23 Sudeste 0 1008.7 -1.2 59
2017-08-18 16:00:00 30.9 12 Sudeste 26 Sudeste 0 1009.2 -1.3 57
2017-08-18 15:00:00 31.5 13 Sudeste 25 Este 0 1009.5 -1.7 51
2017-08-18 14:00:00 31.8 13 Sudeste 23 Este 0 1009.9 -1.5 51
2017-08-18 13:00:00 31.8 12 Sudeste 21 Sudeste 0 1010.5 -1.1 54
2017-08-18 12:00:00 30.6 8 Sudeste 19 Este 0 1011.2 -0.4 59
2017-08-18 11:00:00 29.1 5 Sudeste 13 Sur 0 1011.4 0 61
2017-08-18 10:00:00 26.8 3 Sudoeste 10 Oeste 0 1011.6 0.1 75
2017-08-18 09:00:00 24.3 6 Noroeste 11 Noroeste 0 1011.6 0.1 74
2017-08-18 08:00:00 22.7 4 Noroeste 10 Noroeste 0 1011.4 -0.4 84
2017-08-18 07:00:00 22.5 5 Noroeste 9 Noroeste 0 1011.5 -0.4 86
2017-08-18 06:00:00 22.9 5 Noroeste 10 Oeste 0 1011.5 -0.9 84
2017-08-18 05:00:00 23.2 6 Noroeste 10 Noroeste 0 1011.8 -1.1 85
2017-08-18 04:00:00 23.5 4 Noroeste 8 Noroeste 0 1011.9 -1 83
2017-08-18 03:00:00 23.9 3 Noroeste 6 Noroeste 0 1012.4 -0.5 83
2017-08-18 02:00:00 24.6 3 Noroeste 7 Noroeste 0 1012.9 0.1 82
2017-08-18 01:00:00 25.1 3 Noroeste 6 Norte 0 1012.9 0.4 81
2017-08-18 00:00:00 25.7 4 Noroeste 6 Noroeste 0 1012.9 0.6 83
2017-08-17 23:00:00 25.9 2 Nordeste 6 Sudeste 0 1012.8 0.9 82
2017-08-17 22:00:00 26.2 2 Este 8 Este 0 1012.5 0.7 81
2017-08-17 21:00:00 27 6 Sudeste 13 Este 0 1012.3 0.2 77
2017-08-17 20:00:00 28.2 8 Sudeste 15 Este 0 1011.9 -0.3 69
2017-08-17 19:00:00 28.8 8 Sudeste 19 Este 0 1011.8 -1 64
2017-08-17 18:00:00 29.8 10 Sudeste 21 Este 0 1012.1 -1.2 55
2017-08-17 17:00:00 30.7 10 Sudeste 19 Este 0 1012.2 -1.4 50
2017-08-17 16:00:00 30.4 12 Este 22 Este 0 1012.8 -1.1 51
2017-08-17 15:00:00 30.9 13 Sudeste 23 Este 0 1013.3 -0.9 45
2017-08-17 14:00:00 30.6 12 Sudeste 23 Este 0 1013.6 -0.3 48
2017-08-17 13:00:00 30.5 8 Este 20 Este 0 1013.9 0.1 49
2017-08-17 12:00:00 29.9 10 Este 19 Sudeste 0 1014.2 0.5 55
2017-08-17 11:00:00 29.2 7 Este 16 Este 0 1013.9 0.4 58
2017-08-17 10:00:00 27.6 3 Noroeste 17 Oeste 0 1013.8 0.5 65
2017-08-17 09:00:00 25.7 6 Noroeste 13 Oeste 0 1013.7 0.6 77
2017-08-17 08:00:00 24.7 4 Noroeste 9 Nordeste 0 1013.5 0.4 83
2017-08-17 07:00:00 24.5 4 Norte 6 Norte 0 1013.3 0.1 85
2017-08-17 06:00:00 24.8 3 Noroeste 7 Nordeste 0 1013.1 -0.1 84
2017-08-17 05:00:00 25.1 5 Nordeste 10 Nordeste 0 1013.1 -0.3 84
2017-08-17 04:00:00 25 0 Calma 9 Nordeste 0 1013.2 -0.1 84
2017-08-17 03:00:00 25.1 3 Este 8 Nordeste 0 1013.2 -0.1 86
2017-08-17 02:00:00 25.4 3 Este 8 Nordeste 0 1013.4 0.3 86
2017-08-17 01:00:00 25.7 3 Nordeste 6 Nordeste 0 1013.3 0.5 86
2017-08-17 00:00:00 25.8 3 Este 8 Este 0 1013.3 1.1 87
2017-08-16 23:00:00 25.9 4 Este 7 Este 0 1013.1 1.3 86
2017-08-16 22:00:00 26.1 3 Este 8 Este 0 1012.8 1.3 85
2017-08-16 21:00:00 26.3 4 Este 10 Este 0 1012.2 0.2 84
2017-08-16 20:00:00 26.8 5 Este 13 Este 0 1011.8 0 81
2017-08-16 19:00:00 27.9 8 Este 17 Este 0 1011.5 -0.6 76
2017-08-16 18:00:00 27.7 6 Este 21 Sudeste 0 1012 -0.5 78
2017-08-16 17:00:00 29.7 11 Este 26 Este 0 1011.8 -1 68
2017-08-16 16:00:00 29.6 13 Este 27 Sudeste 0 1012.1 -1.2 68
2017-08-16 15:00:00 29.8 16 Este 32 Este 0 1012.5 -1 66
2017-08-16 14:00:00 29.9 14 Este 23 Este 0 1012.8 -0.8 66
2017-08-16 13:00:00 28.3 9 Este 19 Este 0 1013.3 -0.3 69
2017-08-16 12:00:00 28.9 10 Este 21 Sudeste 0 1013.5 -0.1 68
2017-08-16 11:00:00 27.4 6 Norte 12 Este 0 1013.6 0.5 72
2017-08-16 10:00:00 26.1 4 Noroeste 11 Oeste 0 1013.6 1 75
2017-08-16 09:00:00 24.9 8 Noroeste 13 Oeste 0 1013.6 1.4 78
2017-08-16 08:00:00 23.5 5 Noroeste 11 Noroeste 0 1013.1 0.9 81
2017-08-16 07:00:00 23.2 6 Noroeste 10 Noroeste 0 1012.6 0.4 81
2017-08-16 06:00:00 23.4 2 Noroeste 5 Norte 0 1012.2 -0.3 80
2017-08-16 05:00:00 22.9 2 Noroeste 8 Noroeste 0 1012.2 -0.5 81
2017-08-16 04:00:00 23.8 4 Noroeste 9 Oeste 0 1012.2 -0.6 77
2017-08-16 03:00:00 24.1 4 Oeste 9 Noroeste 0 1012.5 -0.3 77
2017-08-16 02:00:00 24.3 7 Oeste 10 Oeste 0 1012.7 0.1 78
2017-08-16 01:00:00 24.6 4 Noroeste 6 Noroeste 0 1012.8 0.3 78
2017-08-16 00:00:00 25.2 2 Sur 13 Oeste 0 1012.8 0.2 76
2017-08-15 23:00:00 25.8 5 Oeste 10 Oeste 0 1012.6 0.3 74
2017-08-15 22:00:00 26.1 3 Nordeste 15 Este 0 1012.5 1.4 72
2017-08-15 21:00:00 26.5 5 Este 22 Este 0 1012.6 1.3 72
2017-08-15 20:00:00 27.5 6 Este 22 Este 0 1012.3 0.7 68
2017-08-15 19:00:00 28 6 Este 17 Sudeste 0 1011.1 -0.4 66
2017-08-15 18:00:00 27.6 11 Este 21 Este 0 1011.3 -1 69
2017-08-15 17:00:00 28.9 11 Este 23 Este 0 1011.6 -1.2 60
2017-08-15 16:00:00 30.7 13 Sudeste 24 Este 0 1011.5 -1.9 47
2017-08-15 15:00:00 30.5 8 Sudeste 20 Sudeste 0 1012.3 -1.7 50
2017-08-15 14:00:00 29.3 11 Este 21 Este 0 1012.8 -0.6 55
2017-08-15 13:00:00 28.4 6 Sudeste 20 Sudeste 0 1013.4 0.4 64
2017-08-15 12:00:00 26.2 9 Sudeste 19 Este 0 1014 1.3 70
2017-08-15 11:00:00 28.3 7 Sudeste 16 Este 0 1013.4 1 56
2017-08-15 10:00:00 26 4 Norte 12 Oeste 0 1013 1 65
2017-08-15 09:00:00 22.7 8 Oeste 15 Oeste 0 1012.7 0.7 71
2017-08-15 08:00:00 20.8 8 Oeste 14 Oeste 0 1012.4 -0.1 78
2017-08-15 07:00:00 20.6 9 Noroeste 14 Noroeste 0 1012 -0.7 82
2017-08-15 06:00:00 20.7 9 Noroeste 14 Oeste 0 1012 -0.9 84
2017-08-15 05:00:00 21.1 10 Noroeste 14 Noroeste 0 1012.5 -0.3 81
2017-08-15 04:00:00 21.7 6 Noroeste 10 Noroeste 0 1012.7 -0.5 79
2017-08-15 03:00:00 22.2 8 Oeste 10 Oeste 0 1012.9 -0.3 78
2017-08-15 02:00:00 22.6 6 Oeste 9 Oeste 0 1012.8 -0.1 78
2017-08-15 01:00:00 23.4 5 Noroeste 8 Norte 0 1013.2 0.9 74
2017-08-15 00:00:00 24.3 3 Noroeste 8 Noroeste 0 1013.2 1.8 73
2017-08-14 23:00:00 24.8 4 Este 7 Este 0 1012.9 1.5 72
2017-08-14 22:00:00 25.2 5 Este 8 Este 0 1012.3 0.7 70
2017-08-14 21:00:00 25.8 3 Este 12 Este 0 1011.4 -0.3 67
2017-08-14 20:00:00 26.8 8 Sudeste 18 Sudeste 0 1011.4 -0.4 62
2017-08-14 19:00:00 27.5 10 Este 21 Este 0 1011.6 -0.5 61
2017-08-14 18:00:00 29.1 10 Sudeste 20 Sudeste 0 1011.7 -0.8 55
2017-08-14 17:00:00 30.2 12 Sudeste 26 Este 0 1011.8 -0.6 50
2017-08-14 16:00:00 30.1 12 Sudeste 25 Sur 0 1012.1 -0.6 53
2017-08-14 15:00:00 30.8 14 Sudeste 27 Sur 0 1012.5 -0.5 49
2017-08-14 14:00:00 30.5 9 Sur 21 Sur 0 1012.4 -0.6 48
2017-08-14 13:00:00 30.2 10 Sudeste 19 Sur 0 1012.7 0 49
2017-08-14 12:00:00 29.4 9 Sur 18 Sur 0 1013 0.4 50
2017-08-14 11:00:00 28 6 Sudeste 14 Este 0 1013 0.7 56
2017-08-14 10:00:00 24.8 6 Noroeste 15 Oeste 0 1012.7 0.5 62
2017-08-14 09:00:00 22 8 Oeste 17 Oeste 0 1012.6 0.6 73
2017-08-14 08:00:00 19.6 9 Noroeste 15 Oeste 0 1012.3 0.2 85
2017-08-14 07:00:00 19.7 9 Noroeste 14 Noroeste 0 1012.2 -0.2 84
2017-08-14 06:00:00 20.2 8 Oeste 16 Oeste 0 1012 -0.5 85
2017-08-14 05:00:00 20.2 8 Oeste 12 Noroeste 0 1012.1 -0.7 85
2017-08-14 04:00:00 20.7 8 Noroeste 12 Noroeste 0 1012.4 -0.6 84
2017-08-14 03:00:00 21.2 6 Noroeste 10 Noroeste 0 1012.5 -0.2 84
2017-08-14 02:00:00 21.8 5 Noroeste 8 Noroeste 0 1012.8 0.2 81
2017-08-14 01:00:00 22.7 4 Noroeste 6 Noroeste 0 1013 0.5 78
2017-08-14 00:00:00 23.4 4 Noroeste 5 Noroeste 0 1012.7 0.7 76
2017-08-13 23:00:00 23.9 3 Sur 7 Sur 0 1012.6 0.8 76
2017-08-13 22:00:00 24.4 4 Sur 10 Sur 0 1012.5 0.8 74
2017-08-13 21:00:00 25.3 6 Sur 14 Sur 0 1012 0 69
2017-08-13 20:00:00 26.8 8 Sur 17 Sudeste 0 1011.8 -0.6 64
2017-08-13 19:00:00 27.7 8 Sudeste 20 Sudeste 0 1011.7 -1 60
2017-08-13 18:00:00 28.2 10 Sudeste 26 Este 0 1012 -1.1 58
2017-08-13 17:00:00 30.2 9 Sudeste 24 Este 0 1012.4 -1.1 49
2017-08-13 16:00:00 30.5 10 Sur 24 Este 0 1012.7 -0.9 48
2017-08-13 15:00:00 29.6 12 Sudeste 26 Sudeste 0 1013.1 -0.9 51
2017-08-13 14:00:00 29.7 14 Sudeste 27 Sur 0 1013.5 -0.6 53
2017-08-13 13:00:00 29.5 12 Sur 23 Sur 0 1013.6 -0.3 49
2017-08-13 12:00:00 29 11 Sur 21 Sudeste 0 1014 0.3 54
2017-08-13 11:00:00 27.5 9 Sur 18 Sudeste 0 1014.1 0.7 59
2017-08-13 10:00:00 25.1 3 Oeste 12 Oeste 0 1013.9 0.8 65
2017-08-13 09:00:00 21.3 8 Noroeste 14 Oeste 0 1013.7 0.8 69
2017-08-13 08:00:00 19.2 9 Oeste 17 Oeste 0 1013.4 0.2 79
2017-08-13 07:00:00 19.2 11 Oeste 19 Oeste 0 1013.1 -0.3 77
2017-08-13 06:00:00 19.7 11 Oeste 17 Oeste 0 1012.9 -1.1 77
2017-08-13 05:00:00 19.8 13 Oeste 17 Oeste 0 1013.2 -1.3 79
2017-08-13 04:00:00 20.2 7 Noroeste 12 Oeste 0 1013.4 -1.4 80
2017-08-13 03:00:00 20.9 7 Oeste 10 Oeste 0 1014 -1 80
2017-08-13 02:00:00 21.3 4 Noroeste 10 Oeste 0 1014.5 -0.5 79
2017-08-13 01:00:00 22.5 5 Oeste 8 Oeste 0 1014.8 0 74
2017-08-13 00:00:00 23 2 Noroeste 6 Sudoeste 0 1015 0.8 72
2017-08-12 23:00:00 23.3 3 Sudoeste 7 Sur 0 1015 0.8 70
2017-08-12 22:00:00 24 5 Sur 10 Sur 0 1014.8 0.8 68
2017-08-12 21:00:00 25 5 Sudeste 13 Sudeste 0 1014.2 0 65
2017-08-12 20:00:00 26.4 7 Sur 17 Este 0 1014.2 -0.4 57
2017-08-12 19:00:00 27.3 10 Sudeste 19 Sur 0 1014 -1 48
2017-08-12 18:00:00 27.9 11 Sudeste 21 Sudeste 0 1014.2 -1.4 43
2017-08-12 17:00:00 28 9 Sudeste 21 Este 0 1014.6 -1.5 44
2017-08-12 16:00:00 28.7 10 Sudeste 25 Este 0 1015 -1.3 40
2017-08-12 15:00:00 28.1 13 Sudeste 29 Este 0 1015.6 -0.6 42
2017-08-12 14:00:00 27.3 15 Este 29 Este 0 1016.1 -0.1 39
2017-08-12 13:00:00 27.9 14 Sudeste 30 Este 0 1016.3 0 45
2017-08-12 12:00:00 27.8 12 Sudeste 26 Este 0 1016.2 0 43
2017-08-12 11:00:00 26.9 8 Este 15 Este 0 1016.2 0.4 40
2017-08-12 10:00:00 23.9 5 Oeste 19 Oeste 0 1016.3 0.7 46
2017-08-12 09:00:00 20.8 10 Noroeste 19 Oeste 0 1016.2 0.9 55
2017-08-12 08:00:00 18 11 Noroeste 21 Noroeste 0 1015.8 0.2 68
2017-08-12 07:00:00 17.9 12 Noroeste 19 Noroeste 0 1015.6 -0.2 71
2017-08-12 06:00:00 18 10 Oeste 22 Oeste 0 1015.3 -0.6 75
2017-08-12 05:00:00 17.9 8 Oeste 18 Oeste 0 1015.6 -0.6 78
2017-08-12 04:00:00 18.3 10 Noroeste 17 Oeste 0 1015.8 -0.4 79
2017-08-12 03:00:00 18.8 9 Noroeste 14 Noroeste 0 1015.9 0.1 77
2017-08-12 02:00:00 19.4 6 Noroeste 11 Noroeste 0 1016.2 0.4 77
2017-08-12 01:00:00 19.9 4 Noroeste 7 Noroeste 0 1016.2 0.8 74
2017-08-12 00:00:00 21.2 5 Noroeste 8 Sudoeste 0 1015.8 1.1 69
2017-08-11 23:00:00 21.7 4 Sudoeste 6 Sudoeste 0 1015.8 1.3 67
2017-08-11 22:00:00 22.2 3 Sur 8 Sur 0 1015.4 1.1 64
2017-08-11 21:00:00 23 4 Sur 12 Sur 0 1014.7 0.3 60
2017-08-11 20:00:00 24.3 4 Sur 16 Sudeste 0 1014.5 0 55
2017-08-11 19:00:00 24.7 6 Sur 17 Sudeste 0 1014.3 -0.3 52
2017-08-11 18:00:00 26.3 8 Sudeste 22 Este 0 1014.4 -0.4 47
2017-08-11 17:00:00 27.4 10 Sudeste 32 Este 0 1014.5 -0.8 40
2017-08-11 16:00:00 27.9 10 Sudeste 23 Sudeste 0 1014.6 -1 37
2017-08-11 15:00:00 27.6 13 Sur 23 Sur 0 1014.8 -1.4 36
2017-08-11 14:00:00 27.5 10 Sur 23 Sudeste 0 1015.3 -1 35
2017-08-11 13:00:00 26.6 7 Sur 15 Sur 0 1015.6 -0.4 36
2017-08-11 12:00:00 24.2 4 Norte 10 Nordeste 0 1016.2 0.3 40
2017-08-11 11:00:00 22.6 3 Sudoeste 15 Oeste 0 1016.3 0.7 43
2017-08-11 10:00:00 20.9 7 Noroeste 18 Oeste 0 1016 0.6 49
2017-08-11 09:00:00 19.4 9 Noroeste 19 Oeste 0 1015.9 0.6 52
2017-08-11 08:00:00 18.2 11 Oeste 19 Noroeste 0 1015.6 0 59
2017-08-11 07:00:00 17.9 7 Noroeste 19 Noroeste 0 1015.4 -0.4 62
2017-08-11 06:00:00 19 13 Oeste 24 Oeste 0 1015.3 -0.9 55
2017-08-11 05:00:00 19.4 13 Oeste 23 Noroeste 0 1015.6 -1 55
2017-08-11 04:00:00 19.1 9 Noroeste 15 Noroeste 0 1015.8 -1 62
2017-08-11 03:00:00 19.1 4 Noroeste 14 Noroeste 0 1016.2 -0.3 69
2017-08-11 02:00:00 19.2 7 Noroeste 11 Oeste 0 1016.6 0.3 75
2017-08-11 01:00:00 20.1 6 Noroeste 9 Oeste 0 1016.8 1.1 75
2017-08-11 00:00:00 21.3 4 Noroeste 8 Norte 0 1016.5 1.3 68
2017-08-10 23:00:00 21.9 3 Noroeste 5 Sudoeste 0 1016.3 1.5 63
2017-08-10 22:00:00 22.1 3 Sudoeste 8 Sur 0 1015.7 0.9 59
2017-08-10 21:00:00 23.2 6 Sur 12 Sur 0 1015.2 0.5 55
2017-08-10 20:00:00 24.6 7 Sur 15 Sur 0 1014.8 -0.1 52
2017-08-10 19:00:00 25.4 9 Sudeste 19 Sur 0 1014.8 -0.1 50
2017-08-10 18:00:00 26.4 10 Sudeste 19 Sudeste 0 1014.7 -0.5 47
2017-08-10 17:00:00 27.5 12 Sur 22 Este 0 1014.9 -0.4 40
2017-08-10 16:00:00 27.9 9 Sur 22 Sudeste 0 1014.9 -0.5 37
2017-08-10 15:00:00 27.6 14 Sudeste 27 Este 0 1015.2 -0.5 42
2017-08-10 14:00:00 27.7 12 Sudeste 22 Este 0 1015.3 -0.7 39
2017-08-10 13:00:00 27.2 6 Sudeste 18 Oeste 0 1015.4 -0.7 36
2017-08-10 12:00:00 25 6 Oeste 17 Oeste 0 1015.7 -0.3 40
2017-08-10 11:00:00 23 10 Oeste 19 Oeste 0 1016 0.5 45
2017-08-10 10:00:00 20.2 12 Oeste 22 Noroeste 0 1016.1 0.7 52
2017-08-10 09:00:00 17.6 7 Noroeste 17 Oeste 0 1016 0.7 73
2017-08-10 08:00:00 16 10 Oeste 16 Oeste 0 1015.5 0.7 84
2017-08-10 07:00:00 15.9 7 Noroeste 17 Oeste 0 1015.4 0.7 87
2017-08-10 06:00:00 15.7 8 Oeste 21 Oeste 0.4 1015.3 1 85
2017-08-10 05:00:00 17.3 16 Norte 35 Norte 0.4 1014.8 0.9 70
2017-08-10 04:00:00 17.3 6 Sudeste 17 Norte 2 1014.7 0.8 80
2017-08-10 03:00:00 18 10 Norte 20 Norte 0.8 1014.3 1.1 67
2017-08-10 02:00:00 18.8 3 Norte 19 Norte 1.6 1013.9 0.8 68
2017-08-10 01:00:00 19.5 11 Noroeste 37 Norte 0.6 1013.9 2 59
2017-08-10 00:00:00 20.7 15 Norte 37 Norte 0 1013.2 2 49
2017-08-09 23:00:00 19.7 18 Norte 41 Norte 0 1013.1 2.6 62
2017-08-09 22:00:00 20.5 16 Norte 34 Norte 0 1011.9 2.3 58
2017-08-09 21:00:00 22.7 9 Noroeste 31 Norte 0 1011.2 2.1 52
2017-08-09 20:00:00 23.6 12 Norte 32 Nordeste 0 1010.5 1.3 51
2017-08-09 19:00:00 24.3 17 Norte 41 Norte 0 1009.6 0.1 54
2017-08-09 18:00:00 27.4 13 Este 33 Sudeste 0 1009.1 -0.5 62
2017-08-09 17:00:00 27.7 12 Este 30 Este 0 1009.2 -0.7 60
2017-08-09 16:00:00 28 14 Este 33 Este 0 1009.5 -0.3 59
2017-08-09 15:00:00 28.6 13 Este 34 Este 0 1009.6 -0.7 56
2017-08-09 14:00:00 26.9 9 Este 25 Este 0 1009.9 -0.3 60
2017-08-09 13:00:00 28 10 Este 25 Nordeste 0 1009.8 -0.2 55
2017-08-09 12:00:00 26.7 8 Nordeste 21 Nordeste 0 1010.3 0.5 56
2017-08-09 11:00:00 27.2 9 Nordeste 24 Este 0 1010.2 0.4 53
2017-08-09 10:00:00 26.8 8 Nordeste 18 Nordeste 0 1010 0.2 55
2017-08-09 09:00:00 24.2 4 Noroeste 11 Oeste 0 1009.8 0.2 56
2017-08-09 08:00:00 23 6 Noroeste 10 Noroeste 0 1009.8 0 52
2017-08-09 07:00:00 23.4 5 Noroeste 10 Noroeste 0 1009.8 -0.1 49
2017-08-09 06:00:00 24.5 8 Norte 14 Norte 0 1009.6 -0.8 53
2017-08-09 05:00:00 24.1 3 Noroeste 9 Oeste 0 1009.8 -0.8 43
2017-08-09 04:00:00 24.3 4 Noroeste 11 Noroeste 0 1009.9 -0.8 44
2017-08-09 03:00:00 24.8 5 Noroeste 13 Noroeste 0 1010.4 -0.3 42
2017-08-09 02:00:00 25.4 6 Norte 18 Norte 0 1010.6 0.5 54
2017-08-09 01:00:00 25.7 10 Norte 19 Nordeste 0 1010.7 1.5 71
2017-08-09 00:00:00 26.1 6 Nordeste 14 Este 0 1010.7 2.8 70
2017-08-08 23:00:00 26.3 7 Nordeste 21 Este 0 1010.1 3.2 69
2017-08-08 22:00:00 26.6 8 Este 24 Nordeste 0 1009.2 2.8 70
2017-08-08 21:00:00 27.2 10 Nordeste 31 Este 0 1007.9 1.7 68
2017-08-08 20:00:00 29.2 14 Este 31 Nordeste 0 1006.9 1 52
2017-08-08 19:00:00 31.1 11 Este 29 Este 0 1006.4 0.8 35
2017-08-08 18:00:00 32.1 13 Este 26 Este 0 1006.2 0.7 34
2017-08-08 17:00:00 32.7 11 Este 27 Este 0 1005.9 0.3 36
2017-08-08 16:00:00 33.1 10 Este 26 Sudeste 0 1005.6 0.2 34
2017-08-08 15:00:00 33 17 Este 28 Sudeste 0 1005.5 0.2 32
2017-08-08 14:00:00 32.6 11 Este 25 Este 0 1005.6 0.7 36
2017-08-08 13:00:00 32.8 12 Este 21 Sudeste 0 1005.4 0.7 38
2017-08-08 12:00:00 32.4 8 Sudeste 18 Sur 0 1005.3 0.9 44
2017-08-08 11:00:00 31 6 Sudoeste 18 Oeste 0 1004.9 1 52
2017-08-08 10:00:00 28.3 5 Sudoeste 11 Sur 0 1004.7 1.5 65
2017-08-08 09:00:00 26.5 5 Oeste 9 Oeste 0 1004.4 1.9 80
2017-08-08 08:00:00 25 3 Noroeste 7 Norte 0 1003.9 1.2 86
2017-08-08 07:00:00 24.1 4 Noroeste 12 Oeste 0 1003.2 0 87
2017-08-08 06:00:00 24.5 5 Oeste 8 Oeste 0 1002.5 -1.1 87
2017-08-08 05:00:00 25 6 Noroeste 9 Noroeste 0 1002.7 -1.8 85
2017-08-08 04:00:00 25.1 5 Noroeste 11 Noroeste 0 1003.2 -1.6 85
2017-08-08 03:00:00 25.6 4 Noroeste 11 Noroeste 0 1003.6 -1.7 84
2017-08-08 02:00:00 26.3 4 Noroeste 16 Este 0 1004.5 -1.3 83
2017-08-08 01:00:00 27 4 Nordeste 13 Este 0 1004.8 -1.3 86
2017-08-08 00:00:00 27.2 3 Este 9 Nordeste 0 1005.3 -0.6 83
2017-08-07 23:00:00 27.6 7 Norte 12 Norte 0 1005.8 0.1 81
2017-08-07 22:00:00 27.8 3 Este 17 Sur 0 1006.1 0.2 81
2017-08-07 21:00:00 28.6 8 Sudeste 13 Sudeste 0 1005.9 -0.4 76
2017-08-07 20:00:00 29.2 7 Sudeste 18 Sur 0 1005.7 -1.2 74
2017-08-07 19:00:00 30 9 Sur 28 Sudeste 0 1005.9 -1.6 69
2017-08-07 18:00:00 31.6 13 Sur 25 Sudeste 0 1006.3 -1.6 63
2017-08-07 17:00:00 32 14 Sudeste 29 Sudeste 0 1006.9 -1.7 60
2017-08-07 16:00:00 32.3 15 Sur 32 Sur 0 1007.5 -1.7 59
2017-08-07 15:00:00 32.8 15 Sur 28 Sur 0 1007.9 -1.7 58
2017-08-07 14:00:00 32.8 15 Sur 32 Sur 0 1008.6 -1 57
2017-08-07 13:00:00 32 14 Sur 26 Sur 0 1009.2 -0.3 60
2017-08-07 12:00:00 31.6 11 Sur 21 Sur 0 1009.6 -0.3 60
2017-08-07 11:00:00 29.8 8 Sur 15 Sur 0 1009.6 -0.6 68
2017-08-07 10:00:00 28.1 3 Este 9 Sudeste 0 1009.5 -0.3 70
2017-08-07 09:00:00 26.4 2 Oeste 7 Oeste 0 1009.9 0.2 76
2017-08-07 08:00:00 24.6 6 Oeste 13 Oeste 0 1010.2 0.3 82
2017-08-07 07:00:00 24.1 3 Noroeste 12 Oeste 0 1009.8 -0.4 84
2017-08-07 06:00:00 24.6 6 Noroeste 9 Oeste 0 1009.7 -0.7 83
2017-08-07 05:00:00 24.6 5 Noroeste 9 Noroeste 0 1009.9 -1.1 83
2017-08-07 04:00:00 25.1 5 Noroeste 8 Noroeste 0 1010.2 -1.1 81
2017-08-07 03:00:00 25.5 3 Noroeste 7 Noroeste 0 1010.4 -1 80
2017-08-07 02:00:00 26 3 Noroeste 9 Noroeste 0 1011 -0.3 79
2017-08-07 01:00:00 26.6 3 Nordeste 6 Nordeste 0 1011.3 0.4 79
2017-08-07 00:00:00 26.8 3 Este 8 Nordeste 0 1011.4 0.8 77
2017-08-06 23:00:00 26.7 4 Este 10 Nordeste 0 1011.3 0.7 78
2017-08-06 22:00:00 26.8 4 Nordeste 11 Este 0 1010.9 0 77
2017-08-06 21:00:00 27.4 6 Este 16 Este 0 1010.6 -0.6 74
2017-08-06 20:00:00 28.3 8 Este 20 Este 0 1010.6 -0.8 70
2017-08-06 19:00:00 29.2 8 Este 21 Este 0 1010.9 -0.7 66
2017-08-06 18:00:00 30 10 Este 26 Este 0 1011.2 -0.7 62
2017-08-06 17:00:00 30.6 11 Este 25 Este 0 1011.4 -0.7 60
2017-08-06 16:00:00 30.7 13 Este 29 Sudeste 0 1011.6 -0.6 60
2017-08-06 15:00:00 30.9 9 Este 34 Sudeste 0 1011.9 -0.3 59
2017-08-06 14:00:00 31 16 Este 28 Este 0 1012.1 0.3 59
2017-08-06 13:00:00 30.9 12 Este 30 Nordeste 0 1012.2 0.9 58
2017-08-06 12:00:00 30 11 Este 27 Este 0 1012.2 1.5 60
2017-08-06 11:00:00 30.3 9 Este 23 Nordeste 0 1011.8 1.8 59
2017-08-06 10:00:00 29.2 8 Nordeste 19 Nordeste 0 1011.3 1.9 61
2017-08-06 09:00:00 27.6 4 Nordeste 14 Norte 0 1010.7 1.6 69
2017-08-06 08:00:00 25.8 3 Norte 7 Noroeste 0 1010 1.2 77
2017-08-06 07:00:00 25.1 3 Noroeste 15 Oeste 0 1009.4 0.6 77
2017-08-06 06:00:00 25.3 7 Noroeste 12 Noroeste 0 1009.1 0.4 72
2017-08-06 05:00:00 25.4 4 Norte 9 Norte 0 1008.8 0.2 70
2017-08-06 04:00:00 26.7 4 Oeste 8 Nordeste 0 1008.8 -0.5 68
2017-08-06 03:00:00 27.3 4 Este 13 Nordeste 0 1008.7 0.3 70
2017-08-06 02:00:00 27.8 9 Norte 14 Norte 0 1008.6 -0.1 69
2017-08-06 01:00:00 27.9 5 Oeste 12 Oeste 0 1009.3 1.4 76
2017-08-06 00:00:00 28.6 3 Noroeste 10 Sur 0 1008.4 0.3 73
2017-08-05 23:00:00 28.9 3 Sudeste 12 Noroeste 0 1008.7 0.7 71
2017-08-05 22:00:00 29.4 8 Sudeste 22 Este 0 1007.9 0.8 76
2017-08-05 21:00:00 30.7 8 Sur 15 Sur 0 1008.1 -0.2 57
2017-08-05 20:00:00 30.8 5 Sudeste 20 Este 0 1008 0.2 59
2017-08-05 19:00:00 31.3 12 Este 23 Este 0 1007.1 -1 57
2017-08-05 18:00:00 31.9 9 Este 22 Sudeste 0 1008.3 -0.4 53
2017-08-05 17:00:00 32.2 11 Este 21 Sudeste 0 1007.8 -1.7 60
2017-08-05 16:00:00 32.2 13 Este 26 Sudeste 0 1008.1 -1.7 62
2017-08-05 15:00:00 32.4 11 Sudeste 23 Este 0 1008.7 -1.1 58
2017-08-05 14:00:00 31.7 13 Este 23 Sudeste 0 1009.5 -0.2 62
2017-08-05 13:00:00 32 12 Este 22 Este 0 1009.8 -0.1 59
2017-08-05 12:00:00 32.6 10 Sudeste 17 Este 0 1009.8 -0.1 52
2017-08-05 11:00:00 31.6 3 Sudeste 9 Este 0 1009.7 0.1 52
2017-08-05 10:00:00 29.5 2 Oeste 9 Noroeste 0 1009.9 0.6 66
2017-08-05 09:00:00 26.5 5 Noroeste 13 Noroeste 0 1009.9 0.9 74
2017-08-05 08:00:00 24.6 9 Noroeste 14 Noroeste 0 1009.6 0.8 74
2017-08-05 07:00:00 24.7 4 Noroeste 9 Oeste 0 1009.3 0.2 81
2017-08-05 06:00:00 26.2 4 Nordeste 8 Nordeste 0 1009 0 89
2017-08-05 05:00:00 26.1 4 Nordeste 7 Nordeste 0 1008.8 -0.1 90
2017-08-05 04:00:00 26.1 3 Nordeste 5 Nordeste 0 1009.1 0.1 84
2017-08-05 03:00:00 26.3 3 Norte 6 Norte 0 1009 0 71
2017-08-05 02:00:00 26.7 3 Norte 9 Oeste 0 1008.9 -0.1 78
2017-08-05 01:00:00 27.1 7 Oeste 10 Oeste 0 1009 0.6 70
2017-08-05 00:00:00 27.1 4 Sudoeste 12 Sur 0 1009 1.1 86
2017-08-04 23:00:00 27.8 4 Sur 8 Sudoeste 0 1009 1.1 82
2017-08-04 22:00:00 28.4 4 Sur 6 Sudoeste 0 1008.4 0.5 78
2017-08-04 21:00:00 29.7 3 Sudeste 9 Este 0 1007.9 0 72
2017-08-04 20:00:00 30.6 6 Este 14 Sudeste 0 1007.9 -0.3 64
2017-08-04 19:00:00 31.3 8 Sudeste 18 Sudeste 0 1007.9 -0.6 61
2017-08-04 18:00:00 32.2 8 Sudeste 20 Este 0 1007.9 -1 57
2017-08-04 17:00:00 33 12 Sudeste 20 Este 0 1008.2 -1.1 54
2017-08-04 16:00:00 32.8 12 Este 23 Este 0 1008.5 -1.3 53
2017-08-04 15:00:00 33.7 12 Sudeste 22 Este 0 1008.9 -1.2 50
2017-08-04 14:00:00 33.7 12 Este 24 Este 0 1009.3 -0.8 49
2017-08-04 13:00:00 33.7 10 Este 20 Sudeste 0 1009.8 0 48
2017-08-04 12:00:00 32.9 8 Este 17 Este 0 1010.1 0.6 50
2017-08-04 11:00:00 32.7 6 Este 14 Este 0 1010.1 0.8 53
2017-08-04 10:00:00 30.8 2 Sudoeste 10 Oeste 0 1009.8 1 52
2017-08-04 09:00:00 27.5 5 Noroeste 13 Oeste 0 1009.5 1.3 54
2017-08-04 08:00:00 24.7 6 Noroeste 13 Oeste 0 1009.3 1.3 62
2017-08-04 07:00:00 24.4 4 Noroeste 8 Noroeste 0 1008.8 1 69
2017-08-04 06:00:00 24.8 3 Noroeste 5 Noroeste 0 1008.2 0.3 72
2017-08-04 05:00:00 25 4 Noroeste 8 Noroeste 0 1008 -0.4 68
2017-08-04 04:00:00 25.8 2 Noroeste 9 Noroeste 0 1007.8 -1.1 64
2017-08-04 03:00:00 27.2 6 Noroeste 13 Oeste 0 1007.9 -1.1 55
2017-08-04 02:00:00 27.5 6 Noroeste 15 Noroeste 0 1008.4 -0.6 55
2017-08-04 01:00:00 27.7 5 Noroeste 9 Noroeste 0 1008.9 0.3 59
2017-08-04 00:00:00 29 5 Noroeste 10 Sudoeste 0 1009 0.9 65
2017-08-03 23:00:00 29.4 3 Sudoeste 5 Sudoeste 0 1009 1.1 65
2017-08-03 22:00:00 30.2 2 Este 8 Sudoeste 0 1008.6 0.7 64
2017-08-03 21:00:00 31.2 4 Sur 13 Sur 0 1008.1 0 59
2017-08-03 20:00:00 33.4 5 Sudeste 16 Sudeste 0 1007.9 -0.8 46
2017-08-03 19:00:00 33.2 7 Este 18 Sudeste 0 1007.9 -0.9 48
2017-08-03 18:00:00 33.9 6 Este 17 Este 0 1008.1 -1.1 44
2017-08-03 17:00:00 32.8 11 Este 22 Este 0 1008.7 -0.9 53
2017-08-03 16:00:00 33.4 9 Este 23 Sudeste 0 1008.8 -0.6 49
2017-08-03 15:00:00 33.2 10 Este 23 Este 0 1009.2 -0.5 49
2017-08-03 14:00:00 33.3 14 Este 25 Este 0 1009.6 -0.6 45
2017-08-03 13:00:00 36.8 12 Sudeste 22 Este 0 1009.4 -0.8 33
2017-08-03 12:00:00 35.4 7 Sudeste 12 Este 0 1009.7 -0.5 33
2017-08-03 11:00:00 33.7 5 Sur 13 Oeste 0 1010.2 0 36
2017-08-03 10:00:00 30.5 10 Oeste -- -- -- 1010.2 0 41
2017-08-03 09:00:00 27.2 13 Oeste 21 Oeste 0 1010.2 0.2 48
2017-08-03 08:00:00 24.6 14 Noroeste 25 Noroeste 0 1010.2 0.1 56
2017-08-03 07:00:00 24.2 13 Oeste 21 Noroeste 0 1010.2 -0.1 58
2017-08-03 06:00:00 24.4 13 Oeste 20 Oeste 0 1010 0.1 58
2017-08-03 05:00:00 24.6 6 Noroeste 10 Oeste 0 1010.1 -0.2 77
2017-08-03 04:00:00 24.8 4 Norte 20 Oeste 0 1010.3 -0.8 63
2017-08-03 03:00:00 25.8 12 Oeste 17 Noroeste 0 1009.9 -1.1 58
2017-08-03 02:00:00 26.1 8 Noroeste 13 Noroeste 0 1010.3 -0.5 59
2017-08-03 01:00:00 27.2 3 Norte 8 Noroeste 0 1011.1 0.8 63
2017-08-03 00:00:00 28.3 5 Oeste 14 Noroeste 0 1011 1.2 53
2017-08-02 23:00:00 28.9 7 Noroeste 19 Oeste 0 1010.8 1 51
2017-08-02 22:00:00 29.4 10 Noroeste 18 Noroeste 0 1010.3 -0.3 51
2017-08-02 21:00:00 30.4 8 Noroeste 17 Noroeste 0 1009.8 -1.4 51
2017-08-02 20:00:00 30.6 6 Noroeste 18 Noroeste 0 1009.8 -2.4 52
2017-08-02 19:00:00 30.5 5 Norte 10 Norte 0 1010.6 -0.7 52
2017-08-02 18:00:00 28.4 5 Sur 17 Este 0.2 1011.2 -1.1 72
2017-08-02 17:00:00 27.8 6 Sur 18 Noroeste 0 1012.2 0.2 70
2017-08-02 16:00:00 28.9 15 Norte 33 Norte 0 1011.3 -1.5 67
2017-08-02 15:00:00 28.8 6 Este 22 Norte 0 1012.3 0.1 71
2017-08-02 14:00:00 29.3 9 Nordeste 27 Este 0 1012 1.1 72
2017-08-02 13:00:00 28.2 9 Este 31 Este 0 1012.8 2.1 79
2017-08-02 12:00:00 30.3 9 Este 27 Nordeste 0 1012.2 0.8 66
2017-08-02 11:00:00 31.2 7 Este 19 Este 0 1010.9 -1.1 58
2017-08-02 10:00:00 27.8 3 Noroeste 19 Noroeste 0 1010.7 -1.4 63
2017-08-02 09:00:00 25.3 7 Noroeste 15 Oeste 0 1011.4 1.1 76
2017-08-02 08:00:00 24.8 5 Sudoeste 30 Oeste 0 1012 1.7 76
2017-08-02 07:00:00 24.6 4 Oeste 16 Oeste 0 1012.1 2 76
2017-08-02 06:00:00 24.3 4 Oeste 6 Noroeste 0 1010.3 0 83
2017-08-02 05:00:00 24.6 5 Norte 13 Noroeste 0 1010.3 -0.8 79
2017-08-02 04:00:00 25 6 Oeste 11 Oeste 0 1010.1 -0.7 80
2017-08-02 03:00:00 25.3 5 Noroeste 12 Oeste 0 1010.3 -0.6 82
2017-08-02 02:00:00 25.9 6 Oeste 12 Sudoeste 0 1011.1 -0.7 81
2017-08-02 01:00:00 26.7 5 Noroeste 17 Oeste 0 1010.8 -0.8 79
2017-08-02 00:00:00 26.5 7 Noroeste 19 Oeste 0 1010.9 1.3 82
2017-08-01 23:00:00 27.2 11 Oeste 20 Oeste 0 1011.8 2.7 80
2017-08-01 22:00:00 27.4 10 Oeste 19 Noroeste 0 1011.6 2.6 80
2017-08-01 21:00:00 27.5 9 Noroeste 20 Noroeste 0 1009.6 1.5 80
2017-08-01 20:00:00 27.7 4 Nordeste 13 Este 0 1009.1 1.2 80
2017-08-01 19:00:00 28 5 Sudeste 18 Este 0 1009 -0.4 80
2017-08-01 18:00:00 28.3 7 Este 21 Sudeste 0 1008.1 -1.5 79
2017-08-01 17:00:00 28.1 7 Este 20 Este 0 1007.9 -0.9 79
2017-08-01 16:00:00 28.8 7 Este 20 Sudeste 0 1009.4 2.4 80
2017-08-01 15:00:00 29.6 9 Este 21 Sudeste 0 1009.6 2.9 72
2017-08-01 14:00:00 28.6 8 Sudeste 21 Sudeste 0.2 1008.8 2.1 76
2017-08-01 13:00:00 29.7 13 Sudeste 20 Este 0 1007 -0.5 64
2017-08-01 12:00:00 29.1 4 Oeste 12 Noroeste 0 1006.7 -0.1 71
2017-08-01 11:00:00 28.3 6 Norte 18 Noroeste 0 1006.7 1 69
2017-08-01 10:00:00 26.1 7 Noroeste 16 Oeste 0 1007.5 2.1 83
2017-08-01 09:00:00 26.1 6 Oeste 13 Oeste 0 1006.8 1.8 82
2017-08-01 08:00:00 25.3 3 Norte 8 Noroeste 0 1005.7 1.2 85
2017-08-01 07:00:00 24.9 4 Noroeste 8 Noroeste 0 1005.4 1.1 87
2017-08-01 06:00:00 25.3 4 Noroeste 6 Noroeste 0 1005 1.1 86
2017-08-01 05:00:00 25.4 2 Sur 12 Sudeste 0 1004.5 0.4 88
2017-08-01 04:00:00 25.5 6 Sur 12 Oeste 0 1004.3 -1.4 87
2017-08-01 03:00:00 25.9 6 Oeste 16 Noroeste 0 1003.9 -1.4 85
2017-08-01 02:00:00 26.4 8 Norte 17 Norte 0 1004.1 -1.2 85
2017-08-01 01:00:00 26.6 5 Este 12 Este 0 1005.7 1.5 85
2017-08-01 00:00:00 26.6 5 Este 14 Este 0 1005.3 1.9 86
2017-07-31 23:00:00 26.6 4 Este 12 Sudeste 0 1005.3 2.4 85
2017-07-31 22:00:00 26.8 6 Este 15 Este 0 1004.2 1.2 84
2017-07-31 21:00:00 27.3 7 Este 17 Este 0 1003.4 -0.1 82
2017-07-31 20:00:00 28.1 7 Nordeste 20 Este 0 1002.9 -0.8 77
2017-07-31 19:00:00 28.9 9 Este 26 Sudeste 0 1003 -1.2 73
2017-07-31 18:00:00 30.4 9 Este 23 Este 0 1003.5 -1.3 66
2017-07-31 17:00:00 30.6 10 Este 25 Este 0 1003.7 -1.4 64
2017-07-31 16:00:00 30.8 15 Este 30 Este 0 1004.2 -1.1 66
2017-07-31 15:00:00 30.8 12 Este 26 Este 0 1004.8 -0.6 65
2017-07-31 14:00:00 30.5 16 Este 29 Este 0 1005.1 -0.4 64
2017-07-31 13:00:00 31.1 10 Este 24 Sudeste 0 1005.3 -0.3 62
2017-07-31 12:00:00 30.3 13 Este 23 Este 0 1005.4 -0.3 62
2017-07-31 11:00:00 29.7 6 Este 14 Norte 0 1005.5 0.1 61
2017-07-31 10:00:00 28.2 6 Nordeste 13 Este 0 1005.6 0.3 66
2017-07-31 09:00:00 26.4 3 Noroeste 9 Oeste 0 1005.7 0.7 76
2017-07-31 08:00:00 24.3 3 Noroeste 10 Nordeste 0 1005.4 0.2 86
2017-07-31 07:00:00 23.8 6 Noroeste 9 Noroeste 0 1005.3 -0.2 86
2017-07-31 06:00:00 24.3 2 Noroeste 5 Noroeste 0 1005 -1 85
2017-07-31 05:00:00 24.8 2 Noroeste 5 Noroeste 0 1005.2 -0.9 84
2017-07-31 04:00:00 25.5 4 Norte 6 Nordeste 0 1005.5 -1 83
2017-07-31 03:00:00 25.9 4 Nordeste 6 Nordeste 0 1006 -0.4 82
2017-07-31 02:00:00 26 4 Nordeste 10 Nordeste 0 1006.1 -0.2 82
2017-07-31 01:00:00 26.2 4 Nordeste 10 Nordeste 0 1006.5 0.7 84
2017-07-31 00:00:00 26.1 4 Nordeste 13 Este 0 1006.4 0.9 85
2017-07-30 23:00:00 26.4 4 Este 12 Este 0 1006.3 1 84
2017-07-30 22:00:00 26.8 5 Este 13 Este 0 1005.8 0.5 82
2017-07-30 21:00:00 27.2 5 Nordeste 18 Este 0 1005.5 -0.1 81
2017-07-30 20:00:00 28.3 10 Este 24 Este 0 1005.3 -0.4 77
2017-07-30 19:00:00 29.3 8 Este 23 Este 0 1005.3 -1 74
2017-07-30 18:00:00 30.4 10 Este 24 Este 0 1005.6 -0.7 70
2017-07-30 17:00:00 30.6 15 Este 27 Este 0 1005.7 -0.7 69
2017-07-30 16:00:00 31 14 Este 27 Este 0 1006.3 -0.4 65
2017-07-30 15:00:00 31.2 12 Este 24 Este 0 1006.3 -0.9 63
2017-07-30 14:00:00 30.9 12 Este 24 Este 0 1006.4 -1 65
2017-07-30 13:00:00 30.7 9 Este 19 Sudeste 0 1006.7 -0.6 66
2017-07-30 12:00:00 30.1 8 Este 17 Sudeste 0 1007.2 0 66
2017-07-30 11:00:00 29.4 7 Sudeste 17 Este 0 1007.4 0.4 70
2017-07-30 10:00:00 27.8 3 Este 10 Sudeste 0 1007.3 0.6 77
2017-07-30 09:00:00 25.5 2 Noroeste 9 Oeste 0 1007.2 0.4 83
2017-07-30 08:00:00 23.3 8 Oeste 12 Oeste 0 1007 0 87
2017-07-30 07:00:00 23.3 4 Noroeste 8 Oeste 0 1006.7 -0.6 87
2017-07-30 06:00:00 24 4 Noroeste 11 Oeste 0 1006.8 -1.1 87
2017-07-30 05:00:00 24.2 4 Noroeste 7 Noroeste 0 1007 -1.3 86
2017-07-30 04:00:00 24.6 3 Noroeste 8 Noroeste 0 1007.3 -1.3 85
2017-07-30 03:00:00 25 3 Noroeste 7 Noroeste 0 1007.9 -0.9 85
2017-07-30 02:00:00 25.6 3 Nordeste 5 Nordeste 0 1008.3 -0.6 88
2017-07-30 01:00:00 25.9 3 Este 7 Este 0 1008.6 -0.1 88
2017-07-30 00:00:00 26 3 Nordeste 8 Nordeste 0 1008.8 0.4 88
2017-07-29 23:00:00 26.3 4 Este 9 Sudeste 0 1008.9 0.7 85
2017-07-29 22:00:00 26.6 3 Nordeste 9 Este 0 1008.7 0.6 81
2017-07-29 21:00:00 27.4 5 Este 16 Este 0 1008.4 -0.1 78
2017-07-29 20:00:00 28.7 8 Este 18 Este 0 1008.2 -0.7 71
2017-07-29 19:00:00 29.5 9 Este 21 Sudeste 0 1008.1 -1.2 66
2017-07-29 18:00:00 30 12 Este 23 Este 0 1008.5 -1.2 65
2017-07-29 17:00:00 30.3 10 Este 21 Este 0 1008.9 -1.2 66
2017-07-29 16:00:00 30.3 12 Este 24 Este 0 1009.3 -1.1 64
2017-07-29 15:00:00 30.4 12 Sudeste 26 Este 0 1009.7 -1.1 62
2017-07-29 14:00:00 30.6 11 Sudeste 22 Este 0 1010.1 -0.7 63
2017-07-29 13:00:00 30 14 Este 24 Este 0 1010.4 -0.6 64
2017-07-29 12:00:00 29.9 9 Este 19 Sudeste 0 1010.8 0 62
2017-07-29 11:00:00 29.7 5 Sudeste 14 Este 0 1010.8 0.3 62
2017-07-29 10:00:00 28.3 3 Sur 8 Este 0 1011 0.7 67
2017-07-29 09:00:00 26.1 3 Noroeste 6 Noroeste 0 1010.8 0.7 75
2017-07-29 08:00:00 24.6 3 Noroeste 7 Norte 0 1010.5 0.5 82
2017-07-29 07:00:00 24.7 3 Este 6 Nordeste 0 1010.3 0.3 84
2017-07-29 06:00:00 25 2 Este 5 Norte 0 1010.1 -0.2 86
2017-07-29 05:00:00 25.2 3 Noroeste 6 Noroeste 0 1010 -0.4 85
2017-07-29 04:00:00 25.2 4 Noroeste 9 Noroeste 0 1010 -0.3 85
2017-07-29 03:00:00 25 2 Nordeste 6 Norte 0 1010.3 -0.2 88
2017-07-29 02:00:00 25.1 0 Calma 8 Este 0 1010.4 -0.2 88
2017-07-29 01:00:00 25.7 4 Sudeste 8 Este 0 1010.3 0.2 84
2017-07-29 00:00:00 25.9 2 Nordeste 9 Sudeste 0 1010.5 0.9 81
2017-07-28 23:00:00 26.3 3 Este 8 Nordeste 0 1010.6 1.2 80
2017-07-28 22:00:00 26.3 4 Nordeste 11 Este 0 1010.1 0.8 81
2017-07-28 21:00:00 26.9 5 Nordeste 16 Este 0 1009.6 0.3 78
2017-07-28 20:00:00 27.8 10 Este 28 Este 0 1009.4 0.1 74
2017-07-28 19:00:00 28.5 15 Este 27 Este 0 1009.3 -0.3 73
2017-07-28 18:00:00 29.8 12 Este 32 Este 0 1009.3 -0.5 65
2017-07-28 17:00:00 30.4 14 Este 32 Este 0 1009.3 -0.7 63
2017-07-28 16:00:00 30.6 14 Este 30 Este 0 1009.6 -0.2 65
2017-07-28 15:00:00 30.3 13 Este 34 Este 0 1009.8 -0.1 64
2017-07-28 14:00:00 30.1 18 Este 33 Este 0 1010 0.1 67
2017-07-28 13:00:00 30.8 13 Este 26 Sudeste 0 1009.8 -0.3 65
2017-07-28 12:00:00 30.7 11 Este 23 Sudeste 0 1009.9 0.1 59
2017-07-28 11:00:00 30.4 8 Este 17 Norte 0 1009.9 0.6 61
2017-07-28 10:00:00 28.5 5 Nordeste 12 Nordeste 0 1010.1 1.4 68
2017-07-28 09:00:00 26.6 3 Nordeste 11 Oeste 0 1009.8 1.7 73
2017-07-28 08:00:00 24.6 6 Noroeste 10 Noroeste 0 1009.3 1.8 82
2017-07-28 07:00:00 24 3 Noroeste 9 Oeste 0 1008.7 1.5 84
2017-07-28 06:00:00 23.9 3 Noroeste 8 Noroeste 0 1008.1 0.9 86
2017-07-28 05:00:00 24.2 3 Norte 7 Norte 0 1007.5 0 85
2017-07-28 04:00:00 24.6 2 Noroeste 6 Noroeste 0 1007.2 -0.4 81
2017-07-28 03:00:00 25.1 3 Noroeste 7 Norte 0 1007.2 -0.5 79
2017-07-28 02:00:00 26.2 4 Nordeste 9 Nordeste 0 1007.5 -0.1 77
2017-07-28 01:00:00 26.2 5 Nordeste 11 Norte 0 1007.6 0.4 80
2017-07-28 00:00:00 26.2 5 Nordeste 12 Nordeste 0 1007.7 1 81
2017-07-27 23:00:00 26.6 6 Nordeste 12 Norte 0 1007.6 1.3 78
2017-07-27 22:00:00 26.9 5 Nordeste 15 Este 0 1007.2 0.7 78
2017-07-27 21:00:00 27.6 5 Este 19 Este 0 1006.7 0 76
2017-07-27 20:00:00 28.7 7 Este 18 Este 0 1006.3 -0.6 73
2017-07-27 19:00:00 29.7 6 Este 18 Este 0 1006.5 -1 66
2017-07-27 18:00:00 30.6 8 Este 22 Este 0 1006.7 -1.2 64
2017-07-27 17:00:00 30.6 12 Este 22 Este 0 1006.9 -1.3 63
2017-07-27 16:00:00 30.5 12 Sudeste 24 Sudeste 0 1007.5 -0.9 63
2017-07-27 15:00:00 30.9 13 Sudeste 25 Este 0 1007.9 -0.9 58
2017-07-27 14:00:00 32.2 13 Sudeste 24 Sur 0 1008.2 -0.8 55
2017-07-27 13:00:00 32.1 12 Sudeste 23 Este 0 1008.4 -0.8 44
2017-07-27 12:00:00 31.8 8 Sudeste 15 Sudeste 0 1008.8 -0.3 46
2017-07-27 11:00:00 30.5 8 Sur 13 Sudeste 0 1009 0.4 46
2017-07-27 10:00:00 28.6 5 Sudoeste 10 Oeste 0 1009.2 0.7 50
2017-07-27 09:00:00 26 6 Oeste 19 Oeste 0 1009.1 0.6 56
2017-07-27 08:00:00 23.4 12 Oeste 21 Oeste 0 1008.6 -0.1 65
2017-07-27 07:00:00 22.5 6 Oeste 17 Oeste 0 1008.5 -0.4 72
2017-07-27 06:00:00 22.2 12 Oeste 21 Oeste 0 1008.5 -0.6 74
2017-07-27 05:00:00 22.5 10 Oeste 14 Oeste 0 1008.7 -0.7 75
2017-07-27 04:00:00 22.8 7 Oeste 13 Noroeste 0 1008.9 -0.8 74
2017-07-27 03:00:00 23 6 Noroeste 11 Oeste 0 1009.1 -0.6 76
2017-07-27 02:00:00 23.4 5 Oeste 9 Oeste 0 1009.4 -0.1 75
2017-07-27 01:00:00 24 4 Sudoeste 8 Sudoeste 0 1009.7 0.7 76
2017-07-27 00:00:00 24.2 4 Sudoeste 6 Sudoeste 0 1009.7 1.3 77
2017-07-26 23:00:00 24.5 3 Sur 9 Sur 0 1009.5 1.5 73
2017-07-26 22:00:00 25 5 Sur 12 Sur 0 1009 1.1 69
2017-07-26 21:00:00 25.9 6 Sur 14 Sudoeste 0 1008.4 0.4 62
2017-07-26 20:00:00 26.9 8 Sur 18 Sur 0 1008 -0.3 58
2017-07-26 19:00:00 28.2 8 Sur 19 Sudeste 0 1007.9 -0.6 53
2017-07-26 18:00:00 28.7 9 Sur 21 Este 0 1008 -0.6 51
2017-07-26 17:00:00 28.7 11 Sudeste 23 Sudeste 0 1008.3 -0.7 50
2017-07-26 16:00:00 29.5 12 Sudeste 26 Sudeste 0 1008.5 -0.7 49
2017-07-26 15:00:00 30.8 13 Sudeste 28 Sudeste 0 1008.6 -0.6 45
2017-07-26 14:00:00 30.3 13 Sur 27 Sudeste 0 1009 -0.2 47
2017-07-26 13:00:00 30 12 Sudeste 21 Este 0 1009.2 0.1 48
2017-07-26 12:00:00 29.6 10 Sur 23 Este 0 1009.2 0.1 49
2017-07-26 11:00:00 28.8 9 Sur 17 Sur 0 1009.2 0.4 47
2017-07-26 10:00:00 27.2 7 Sudoeste 22 Noroeste 0 1009.1 0.6 47
2017-07-26 09:00:00 24.4 10 Oeste 22 Noroeste 0 1009.1 0.8 40
2017-07-26 08:00:00 20.8 4 Oeste 17 Oeste 0 1008.8 0.3 57
2017-07-26 07:00:00 21.2 10 Oeste 18 Oeste 0 1008.5 0 54
2017-07-26 06:00:00 22.2 8 Noroeste 14 Oeste 0 1008.3 -0.4 54
2017-07-26 05:00:00 21.4 6 Noroeste 12 Oeste 0 1008.5 -0.4 58
2017-07-26 04:00:00 21.8 8 Oeste 10 Oeste 0 1008.5 -0.4 57
2017-07-26 03:00:00 22.2 7 Noroeste 13 Oeste 0 1008.7 -0.4 61
2017-07-26 02:00:00 22.8 7 Oeste 11 Noroeste 0 1008.9 -0.2 61
2017-07-26 01:00:00 23.7 6 Noroeste 12 Noroeste 0 1008.9 0.2 58
2017-07-26 00:00:00 24.3 4 Noroeste 11 Sudoeste 0 1009.1 0.9 56
2017-07-25 23:00:00 24.7 4 Noroeste 9 Noroeste 0 1009.1 1 54
2017-07-25 22:00:00 24.5 5 Sur 11 Sudoeste 0 1008.7 0.7 56
2017-07-25 21:00:00 25.3 6 Sur 16 Sudeste 0 1008.2 0 54
2017-07-25 20:00:00 27 9 Sudeste 18 Este 0 1008.1 -0.3 48
2017-07-25 19:00:00 27.7 9 Sudeste 20 Sudeste 0 1008 -0.9 42
2017-07-25 18:00:00 28.4 11 Sudeste 22 Este 0 1008.2 -1.1 42
2017-07-25 17:00:00 28.8 12 Sudeste 32 Este 0 1008.4 -1 41
2017-07-25 16:00:00 29.5 13 Sudeste 27 Sudeste 0 1008.9 -0.4 36
2017-07-25 15:00:00 28.4 16 Este 32 Sudeste 0 1009.3 -0.2 38
2017-07-25 14:00:00 29.5 15 Sudeste 25 Este 0 1009.4 -0.2 37
2017-07-25 13:00:00 28.9 15 Este 31 Este 0 1009.3 -0.6 36
2017-07-25 12:00:00 29.2 16 Sudeste 30 Este 0 1009.5 -0.5 37
2017-07-25 11:00:00 28.3 4 Sudeste 18 Noroeste 0 1009.6 -0.5 32
2017-07-25 10:00:00 26.1 11 Noroeste 26 Norte 0 1009.9 -0.2 36
2017-07-25 09:00:00 24.3 11 Noroeste 27 Norte 0 1010 0.1 38
2017-07-25 08:00:00 22.3 8 Noroeste 19 Noroeste 0 1010.1 0.3 47
2017-07-25 07:00:00 21.3 6 Noroeste 19 Oeste 0 1010.1 -0.1 51
2017-07-25 06:00:00 22 4 Noroeste 17 Oeste 0 1009.9 -0.6 50
2017-07-25 05:00:00 23.1 10 Oeste 17 Noroeste 0 1009.8 -0.9 48
2017-07-25 04:00:00 24 13 Oeste 18 Oeste 0 1010.2 -0.7 47
2017-07-25 03:00:00 24.8 9 Oeste 14 Oeste 0 1010.5 -0.3 49
2017-07-25 02:00:00 25.4 6 Noroeste 13 Noroeste 0 1010.7 0.1 54
2017-07-25 01:00:00 25.9 5 Noroeste 13 Este 0 1010.9 1 56
2017-07-25 00:00:00 26.6 6 Este 13 Sudeste 0 1010.8 1.5 60
2017-07-24 23:00:00 26.5 3 Sur 10 Sur 0 1010.6 1.7 66
2017-07-24 22:00:00 27.1 5 Sur 13 Sudoeste 0 1009.9 1.2 64
2017-07-24 21:00:00 28.6 8 Sur 14 Sur 0 1009.3 0.7 54
2017-07-24 20:00:00 30 9 Sur 17 Sur 0 1008.9 0 47
2017-07-24 19:00:00 31.3 10 Sur 18 Sur 0 1008.7 -0.7 43
2017-07-24 18:00:00 32.3 11 Sur 22 Sur 0 1008.6 -1.4 42
2017-07-24 17:00:00 33.2 10 Sur 20 Sudeste 0 1008.9 -1.3 39
2017-07-24 16:00:00 33.4 9 Sudeste 22 Sur 0 1009.4 -1.3 39
2017-07-24 15:00:00 32.5 12 Sudeste 27 Sudeste 0 1010 -0.8 41
2017-07-24 14:00:00 32.3 11 Sudeste 24 Sudeste 0 1010.2 -0.6 40
2017-07-24 13:00:00 31.7 12 Sudeste 27 Este 0 1010.7 -0.1 44
2017-07-24 12:00:00 31.4 10 Sudeste 22 Este 0 1010.8 -0.1 41
2017-07-24 11:00:00 30.5 4 Norte 20 Nordeste 0 1010.8 0.3 39
2017-07-24 10:00:00 28.5 7 Noroeste 15 Oeste 0 1010.8 0.4 47
2017-07-24 09:00:00 25.5 8 Oeste 15 Oeste 0 1010.9 0.7 55
2017-07-24 08:00:00 23.1 8 Oeste 13 Oeste 0 1010.5 0.2 67
2017-07-24 07:00:00 22.2 5 Noroeste 11 Noroeste 0 1010.4 0.1 78
2017-07-24 06:00:00 22.4 6 Noroeste 13 Noroeste 0 1010.2 -0.7 85
2017-07-24 05:00:00 23.1 8 Oeste 13 Oeste 0 1010.3 -1.3 87
2017-07-24 04:00:00 23.6 3 Oeste 8 Oeste 0 1010.3 -1.4 84
2017-07-24 03:00:00 23.9 4 Noroeste 9 Noroeste 0 1010.9 -1 83
2017-07-24 02:00:00 24.3 3 Noroeste 8 Noroeste 0 1011.6 -0.2 78
2017-07-24 01:00:00 24.8 4 Oeste 7 Sudoeste 0 1011.7 0.5 75
2017-07-24 00:00:00 25.3 2 Este 6 Sudeste 0 1011.9 1 75
2017-07-23 23:00:00 25.4 3 Nordeste 8 Nordeste 0 1011.8 1.3 71
2017-07-23 22:00:00 25.8 5 Este 12 Este 0 1011.2 0.8 67
2017-07-23 21:00:00 26.9 6 Este 18 Este 0 1010.9 0.4 66
2017-07-23 20:00:00 27.9 7 Este 21 Sudeste 0 1010.5 -0.7 70
2017-07-23 19:00:00 28.3 10 Este 26 Este 0 1010.4 -0.8 70
2017-07-23 18:00:00 28.1 12 Este 24 Este 0 1010.5 -1.3 68
2017-07-23 17:00:00 30.7 9 Este 21 Sudeste 0 1011.2 -1.3 58
2017-07-23 16:00:00 30.8 10 Sudeste 24 Sudeste 0 1011.2 -1.2 58
2017-07-23 15:00:00 30 10 Sudeste 21 Este 0 1011.8 -1.8 59
2017-07-23 14:00:00 29.3 13 Este 23 Este 0 1012.5 -0.1 62
2017-07-23 13:00:00 28.1 8 Este 22 Este 0 1012.4 -0.5 66
2017-07-23 12:00:00 27.9 6 Nordeste 19 Este 0 1013.6 1.4 70
2017-07-23 11:00:00 27.3 10 Nordeste 22 Nordeste 0 1012.6 0.8 71
2017-07-23 10:00:00 25.9 5 Nordeste 16 Norte 0 1012.9 1.9 82
2017-07-23 09:00:00 26.2 8 Nordeste 18 Nordeste 0 1012.2 2.3 79
2017-07-23 08:00:00 24.3 5 Noroeste 9 Noroeste 0 1011.8 1.9 84
2017-07-23 07:00:00 24.7 4 Este 13 Nordeste 0 1011 1.3 86
2017-07-23 06:00:00 23.6 3 Norte 7 Norte 0 1009.9 -0.2 88
2017-07-23 05:00:00 23.4 2 Noroeste 7 Oeste 0 1009.9 -0.8 88
2017-07-23 04:00:00 23.9 4 Noroeste 8 Noroeste 0 1009.7 -0.9 87
2017-07-23 03:00:00 24.5 3 Noroeste 8 Norte 0 1010.1 -0.4 85
2017-07-23 02:00:00 25 3 Noroeste 9 Noroeste 0 1010.7 0.4 84
2017-07-23 01:00:00 25.4 2 Sudoeste 5 Sudoeste 0 1010.6 1.3 84
2017-07-23 00:00:00 25.6 2 Sur 5 Sudeste 0 1010.5 1.9 83
2017-07-22 23:00:00 26 3 Sur 10 Sur 0 1010.3 2.5 81
2017-07-22 22:00:00 26.5 6 Sur 16 Sur 0 1009.3 1.8 80
2017-07-22 21:00:00 27.4 9 Sur 15 Sudeste 0 1008.6 0.9 76
2017-07-22 20:00:00 29.1 9 Sur 17 Sur 0 1007.8 -0.2 67
2017-07-22 19:00:00 30 9 Sudeste 21 Este 0 1007.5 -0.8 62
2017-07-22 18:00:00 31.5 10 Sur 24 Sur 0 1007.7 -1 57
2017-07-22 17:00:00 31.4 12 Sudeste 25 Sur 0 1008 -0.8 58
2017-07-22 16:00:00 31.7 13 Sudeste 22 Sur 0 1008.3 -0.8 57
2017-07-22 15:00:00 31.8 10 Sur 22 Sudeste 0 1008.7 -0.3 58
2017-07-22 14:00:00 30.9 10 Sudeste 22 Sudeste 0 1008.8 0 61
2017-07-22 13:00:00 29 12 Sudeste 19 Sudeste 0 1009.1 0.7 70
2017-07-22 12:00:00 27.3 9 Sudeste 18 Sudeste 0 1009 1.5 82
2017-07-22 11:00:00 27.9 10 Este 19 Sudeste 0 1008.8 1.7 74
2017-07-22 10:00:00 27.1 5 Este 14 Este 0 1008.4 1.7 76
2017-07-22 09:00:00 25.9 3 Nordeste 6 Sudeste 0 1007.5 1.3 78
2017-07-22 08:00:00 23.6 3 Noroeste 7 Norte 0 1007.1 0.7 83
2017-07-22 07:00:00 23.2 0 Calma 6 Noroeste 0 1006.7 0.1 84
2017-07-22 06:00:00 23.5 4 Noroeste 10 Noroeste 0 1006.2 -0.5 84
2017-07-22 05:00:00 23.8 2 Noroeste 7 Noroeste 0 1006.4 -0.5 83
2017-07-22 04:00:00 24.1 3 Noroeste 10 Oeste 0 1006.6 -0.6 82
2017-07-22 03:00:00 24.4 4 Noroeste 9 Noroeste 0 1006.7 -0.5 82
2017-07-22 02:00:00 24.9 4 Noroeste 8 Noroeste 0 1006.9 0 80
2017-07-22 01:00:00 25.1 4 Noroeste 7 Norte 0 1007.2 0.9 79
2017-07-22 00:00:00 25.5 4 Sudoeste 10 Sudeste 0 1007.2 1.4 77